createdAt,value
2023-06-14T00:00:36.893Z,88013.00
2023-06-14T00:01:36.933Z,88009.00
2023-06-14T00:02:36.970Z,88009.00
2023-06-14T00:03:37.009Z,88011.00
2023-06-14T00:04:36.921Z,88009.00
2023-06-14T00:05:36.882Z,88007.00
2023-06-14T00:06:36.832Z,88007.00
2023-06-14T00:07:36.821Z,88007.00
2023-06-14T00:08:36.931Z,88007.00
2023-06-14T00:09:36.806Z,88009.00
2023-06-14T00:10:36.788Z,88011.00
2023-06-14T00:11:36.777Z,88009.00
2023-06-14T00:12:36.759Z,88011.00
2023-06-14T00:13:36.778Z,88007.00
2023-06-14T00:14:36.752Z,88011.00
2023-06-14T00:15:36.706Z,88011.00
2023-06-14T00:16:36.767Z,88011.00
2023-06-14T00:17:36.735Z,88009.00
2023-06-14T00:18:36.671Z,88009.00
2023-06-14T00:19:36.683Z,88011.00
2023-06-14T00:20:36.666Z,88009.00
2023-06-14T00:21:36.658Z,88009.00
2023-06-14T00:22:36.640Z,88007.00
2023-06-14T00:23:36.658Z,88007.00
2023-06-14T00:24:36.770Z,88005.00
2023-06-14T00:25:36.627Z,88005.00
2023-06-14T00:26:36.628Z,88005.00
2023-06-14T00:27:36.644Z,88005.00
2023-06-14T00:28:36.616Z,88007.00
2023-06-14T00:29:36.587Z,88005.00
2023-06-14T00:30:36.569Z,88003.00
2023-06-14T00:31:36.575Z,88005.00
2023-06-14T00:32:36.638Z,88003.00
2023-06-14T00:33:36.572Z,88001.00
2023-06-14T00:34:36.569Z,88005.00
2023-06-14T00:35:36.537Z,88001.00
2023-06-14T00:36:36.594Z,88005.00
2023-06-14T00:37:36.604Z,88005.00
2023-06-14T00:38:36.650Z,88005.00
2023-06-14T00:39:36.672Z,88005.00
2023-06-14T00:40:36.692Z,88007.00
2023-06-14T00:41:36.724Z,88009.00
2023-06-14T00:42:36.754Z,88009.00
2023-06-14T00:43:36.835Z,88005.00
2023-06-14T00:44:36.944Z,88007.00
2023-06-14T00:45:36.937Z,88003.00
2023-06-14T00:46:36.903Z,88003.00
2023-06-14T00:47:36.993Z,88003.00
2023-06-14T00:48:36.930Z,88001.00
2023-06-14T00:49:36.975Z,87999.00
2023-06-14T00:50:37.022Z,87999.00
2023-06-14T00:51:37.042Z,88001.00
2023-06-14T00:52:37.129Z,88001.00
2023-06-14T00:53:37.295Z,88001.00
2023-06-14T00:54:37.229Z,87999.00
2023-06-14T00:55:37.176Z,87999.00
2023-06-14T00:56:37.224Z,87995.00
2023-06-14T00:57:37.222Z,87995.00
2023-06-14T00:58:37.272Z,87995.00
2023-06-14T00:59:37.289Z,87993.00
2023-06-14T01:00:37.321Z,87991.00
2023-06-14T01:01:37.379Z,87991.00
2023-06-14T01:02:37.452Z,87991.00
2023-06-14T01:03:37.497Z,87989.00
2023-06-14T01:04:37.470Z,87989.00
2023-06-14T01:05:37.497Z,87987.00
2023-06-14T01:06:37.546Z,87987.00
2023-06-14T01:07:37.585Z,87989.00
2023-06-14T01:08:37.615Z,87989.00
2023-06-14T01:09:37.644Z,87989.00
2023-06-14T01:10:37.656Z,87987.00
2023-06-14T01:11:37.692Z,87989.00
2023-06-14T01:12:37.722Z,87989.00
2023-06-14T01:13:37.768Z,87989.00
2023-06-14T01:14:37.817Z,87987.00
2023-06-14T01:15:37.831Z,87989.00
2023-06-14T01:16:37.893Z,87989.00
2023-06-14T01:17:37.958Z,87987.00
2023-06-14T01:18:37.941Z,87987.00
2023-06-14T01:19:37.986Z,87985.00
2023-06-14T01:20:38.305Z,87983.00
2023-06-14T01:21:38.047Z,87983.00
2023-06-14T01:22:38.080Z,87985.00
2023-06-14T01:23:38.115Z,87983.00
2023-06-14T01:24:38.156Z,87985.00
2023-06-14T01:25:38.185Z,87983.00
2023-06-14T01:26:38.224Z,87981.00
2023-06-14T01:27:38.265Z,87981.00
2023-06-14T01:28:38.324Z,87983.00
2023-06-14T01:29:38.333Z,87981.00
2023-06-14T01:30:38.372Z,87983.00
2023-06-14T01:31:38.406Z,87981.00
2023-06-14T01:32:38.511Z,87981.00
2023-06-14T01:33:38.560Z,87983.00
2023-06-14T01:34:38.547Z,87983.00
2023-06-14T01:35:38.541Z,87981.00
2023-06-14T01:36:38.915Z,87981.00
2023-06-14T01:37:38.617Z,87979.00
2023-06-14T01:38:38.713Z,87979.00
2023-06-14T01:39:38.694Z,87979.00
2023-06-14T01:40:38.856Z,87977.00
2023-06-14T01:41:38.777Z,87975.00
2023-06-14T01:42:38.800Z,87977.00
2023-06-14T01:43:38.853Z,87975.00
2023-06-14T01:44:38.868Z,87975.00
2023-06-14T01:45:38.904Z,87977.00
2023-06-14T01:46:39.002Z,87973.00
2023-06-14T01:47:39.035Z,87973.00
2023-06-14T01:48:39.040Z,87973.00
2023-06-14T01:49:39.072Z,87971.00
2023-06-14T01:50:39.116Z,87969.00
2023-06-14T01:51:39.153Z,87969.00
2023-06-14T01:52:39.186Z,87969.00
2023-06-14T01:53:39.246Z,87971.00
2023-06-14T01:54:39.276Z,87969.00
2023-06-14T01:55:39.347Z,87969.00
2023-06-14T01:56:39.357Z,87971.00
2023-06-14T01:57:39.331Z,87971.00
2023-06-14T01:58:39.330Z,87969.00
2023-06-14T01:59:39.335Z,87971.00
2023-06-14T02:00:39.328Z,87973.00
2023-06-14T02:01:39.342Z,87969.00
2023-06-14T02:02:39.328Z,87971.00
2023-06-14T02:03:39.320Z,87971.00
2023-06-14T02:04:39.244Z,87971.00
2023-06-14T02:05:39.284Z,87973.00
2023-06-14T02:06:39.234Z,87971.00
2023-06-14T02:07:39.261Z,87969.00
2023-06-14T02:08:39.312Z,87971.00
2023-06-14T02:09:39.352Z,87971.00
2023-06-14T02:10:39.376Z,87969.00
2023-06-14T02:11:39.421Z,87969.00
2023-06-14T02:12:39.456Z,87969.00
2023-06-14T02:13:39.494Z,87969.00
2023-06-14T02:14:39.570Z,87969.00
2023-06-14T02:15:39.625Z,87967.00
2023-06-14T02:16:39.656Z,87967.00
2023-06-14T02:17:39.680Z,87959.00
2023-06-14T02:18:39.709Z,87965.00
2023-06-14T02:19:39.748Z,87957.00
2023-06-14T02:20:39.811Z,87959.00
2023-06-14T02:21:39.851Z,87965.00
2023-06-14T02:22:39.885Z,87965.00
2023-06-14T02:23:39.992Z,87959.00
2023-06-14T02:24:39.989Z,87959.00
2023-06-14T02:25:40.019Z,87965.00
2023-06-14T02:26:40.070Z,87969.00
2023-06-14T02:27:40.098Z,87969.00
2023-06-14T02:28:40.170Z,87967.00
2023-06-14T02:29:40.190Z,87967.00
2023-06-14T02:30:40.206Z,87965.00
2023-06-14T02:31:40.312Z,87969.00
2023-06-14T02:32:40.327Z,87969.00
2023-06-14T02:33:40.346Z,87967.00
2023-06-14T02:34:40.390Z,87969.00
2023-06-14T02:35:40.447Z,87971.00
2023-06-14T02:36:40.490Z,87969.00
2023-06-14T02:37:40.545Z,87969.00
2023-06-14T02:38:40.606Z,87971.00
2023-06-14T02:39:40.632Z,87967.00
2023-06-14T02:40:40.705Z,87967.00
2023-06-14T02:41:40.739Z,87965.00
2023-06-14T02:42:40.796Z,87965.00
2023-06-14T02:43:40.851Z,87965.00
2023-06-14T02:44:40.889Z,87959.00
2023-06-14T02:45:40.923Z,87965.00
2023-06-14T02:46:40.991Z,87959.00
2023-06-14T02:47:41.094Z,87957.00
2023-06-14T02:48:41.196Z,87959.00
2023-06-14T02:49:41.120Z,87959.00
2023-06-14T02:50:41.193Z,87959.00
2023-06-14T02:51:41.219Z,87957.00
2023-06-14T02:52:41.257Z,87965.00
2023-06-14T02:53:41.326Z,87965.00
2023-06-14T02:54:41.364Z,87959.00
2023-06-14T02:55:41.624Z,87957.00
2023-06-14T02:56:41.447Z,87959.00
2023-06-14T02:57:41.482Z,87957.00
2023-06-14T02:58:41.592Z,87957.00
2023-06-14T02:59:41.582Z,87959.00
2023-06-14T03:00:41.646Z,87959.00
2023-06-14T03:01:41.688Z,87957.00
2023-06-14T03:02:41.773Z,87959.00
2023-06-14T03:03:41.785Z,87957.00
2023-06-14T03:04:41.827Z,87957.00
2023-06-14T03:05:41.888Z,87957.00
2023-06-14T03:06:41.928Z,87957.00
2023-06-14T03:07:42.061Z,87955.00
2023-06-14T03:08:42.050Z,87955.00
2023-06-14T03:09:42.107Z,87957.00
2023-06-14T03:10:42.140Z,87953.00
2023-06-14T03:11:42.191Z,87955.00
2023-06-14T03:12:42.241Z,87957.00
2023-06-14T03:13:42.280Z,87957.00
2023-06-14T03:14:42.348Z,87955.00
2023-06-14T03:15:42.413Z,87957.00
2023-06-14T03:16:42.533Z,87959.00
2023-06-14T03:17:42.527Z,87957.00
2023-06-14T03:18:42.558Z,87965.00
2023-06-14T03:19:42.664Z,87959.00
2023-06-14T03:20:42.665Z,87959.00
2023-06-14T03:21:42.730Z,87965.00
2023-06-14T03:22:42.774Z,87967.00
2023-06-14T03:23:42.839Z,87965.00
2023-06-14T03:24:42.904Z,87965.00
2023-06-14T03:25:42.918Z,87967.00
2023-06-14T03:26:42.992Z,87959.00
2023-06-14T03:27:43.032Z,87965.00
2023-06-14T03:28:43.092Z,87967.00
2023-06-14T03:29:43.138Z,87965.00
2023-06-14T03:30:43.213Z,87965.00
2023-06-14T03:31:43.232Z,87965.00
2023-06-14T03:32:43.365Z,87969.00
2023-06-14T03:33:43.333Z,87967.00
2023-06-14T03:34:43.393Z,87967.00
2023-06-14T03:35:43.468Z,87967.00
2023-06-14T03:36:43.506Z,87971.00
2023-06-14T03:37:43.549Z,87973.00
2023-06-14T03:38:43.617Z,87971.00
2023-06-14T03:39:43.653Z,87973.00
2023-06-14T03:40:43.694Z,87975.00
2023-06-14T03:41:43.760Z,87979.00
2023-06-14T03:42:43.800Z,87977.00
2023-06-14T03:43:43.869Z,87979.00
2023-06-14T03:44:43.927Z,87977.00
2023-06-14T03:45:43.948Z,87983.00
2023-06-14T03:46:44.005Z,87981.00
2023-06-14T03:47:44.103Z,87983.00
2023-06-14T03:48:44.183Z,87983.00
2023-06-14T03:49:44.156Z,87981.00
2023-06-14T03:50:44.231Z,87983.00
2023-06-14T03:51:44.269Z,87987.00
2023-06-14T03:52:44.306Z,87985.00
2023-06-14T03:54:02.399Z,87989.00
2023-06-14T03:56:44.360Z,87987.00
2023-06-14T03:57:44.337Z,87991.00
2023-06-14T03:58:44.344Z,87991.00
2023-06-14T03:59:44.340Z,87991.00
2023-06-14T04:00:44.406Z,87991.00
2023-06-14T04:01:44.342Z,87991.00
2023-06-14T04:02:44.401Z,87991.00
2023-06-14T04:03:44.520Z,87991.00
2023-06-14T04:04:44.364Z,87989.00
2023-06-14T04:05:44.424Z,87991.00
2023-06-14T04:06:44.389Z,87991.00
2023-06-14T04:07:44.385Z,87991.00
2023-06-14T04:08:44.387Z,87993.00
2023-06-14T04:09:44.389Z,87993.00
2023-06-14T04:10:44.390Z,87997.00
2023-06-14T04:11:44.424Z,87999.00
2023-06-14T04:12:44.581Z,87999.00
2023-06-14T04:13:44.398Z,87999.00
2023-06-14T04:14:44.402Z,88001.00
2023-06-14T04:15:44.408Z,87999.00
2023-06-14T04:16:44.445Z,88001.00
2023-06-14T04:17:44.450Z,88001.00
2023-06-14T04:18:44.423Z,88003.00
2023-06-14T04:19:44.399Z,88003.00
2023-06-14T04:20:44.413Z,88003.00
2023-06-14T04:21:44.504Z,88001.00
2023-06-14T04:22:44.589Z,88003.00
2023-06-14T04:23:44.453Z,87999.00
2023-06-14T04:24:44.414Z,87999.00
2023-06-14T04:25:44.414Z,88001.00
2023-06-14T04:26:44.429Z,88003.00
2023-06-14T04:27:44.414Z,88005.00
2023-06-14T04:28:44.416Z,88003.00
2023-06-14T04:29:44.421Z,88005.00
2023-06-14T04:30:44.470Z,88005.00
2023-06-14T04:31:44.421Z,88007.00
2023-06-14T04:32:44.472Z,88007.00
2023-06-14T04:33:44.847Z,88007.00
2023-06-14T04:34:44.438Z,88009.00
2023-06-14T04:35:44.421Z,88009.00
2023-06-14T04:36:44.413Z,88009.00
2023-06-14T04:37:44.416Z,88011.00
2023-06-14T04:38:44.399Z,88011.00
2023-06-14T04:41:03.079Z,88011.00
2023-06-14T04:42:03.049Z,88011.00
2023-06-14T04:43:03.028Z,88015.00
2023-06-14T04:44:03.004Z,88015.00
2023-06-14T04:45:02.981Z,88011.00
2023-06-14T04:46:02.984Z,88011.00
2023-06-14T04:47:02.948Z,88015.00
2023-06-14T04:48:02.926Z,88011.00
2023-06-14T04:49:02.924Z,88011.00
2023-06-14T04:50:02.874Z,88011.00
2023-06-14T04:51:02.854Z,88011.00
2023-06-14T04:52:03.289Z,88011.00
2023-06-14T04:53:02.813Z,88013.00
2023-06-14T04:54:02.794Z,88017.00
2023-06-14T04:55:02.782Z,88017.00
2023-06-14T04:56:02.758Z,88011.00
2023-06-14T04:57:02.757Z,88013.00
2023-06-14T04:58:02.738Z,88013.00
2023-06-14T04:59:02.730Z,88011.00
2023-06-14T05:00:02.751Z,88013.00
2023-06-14T05:01:02.798Z,88015.00
2023-06-14T05:02:02.704Z,88017.00
2023-06-14T05:03:02.753Z,88017.00
2023-06-14T05:04:02.678Z,88019.00
2023-06-14T05:05:02.627Z,88020.00
2023-06-14T05:06:02.607Z,88024.00
2023-06-14T05:07:02.596Z,88020.00
2023-06-14T05:08:02.567Z,88022.00
2023-06-14T05:09:02.560Z,88022.00
2023-06-14T05:10:02.596Z,88022.00
2023-06-14T05:11:02.676Z,88022.00
2023-06-14T05:12:02.713Z,88024.00
2023-06-14T05:13:02.770Z,88020.00
2023-06-14T05:14:02.806Z,88024.00
2023-06-14T05:15:02.846Z,88024.00
2023-06-14T05:16:02.960Z,88024.00
2023-06-14T05:17:02.941Z,88022.00
2023-06-14T05:18:03.023Z,88026.00
2023-06-14T05:19:03.060Z,88024.00
2023-06-14T05:20:03.090Z,88026.00
2023-06-14T05:21:03.139Z,88026.00
2023-06-14T05:22:03.191Z,88026.00
2023-06-14T05:23:03.220Z,88024.00
2023-06-14T05:24:03.338Z,88026.00
2023-06-14T05:25:03.363Z,88028.00
2023-06-14T05:26:03.368Z,88030.00
2023-06-14T05:27:03.448Z,88026.00
2023-06-14T05:28:03.397Z,88026.00
2023-06-14T05:29:03.370Z,88030.00
2023-06-14T05:30:03.351Z,88030.00
2023-06-14T05:31:03.401Z,88028.00
2023-06-14T05:32:03.368Z,88030.00
2023-06-14T05:33:03.322Z,88030.00
2023-06-14T05:34:03.385Z,88032.00
2023-06-14T05:35:03.259Z,88030.00
2023-06-14T05:36:03.328Z,88030.00
2023-06-14T05:37:03.263Z,88032.00
2023-06-14T05:38:03.228Z,88032.00
2023-06-14T05:39:03.215Z,88038.00
2023-06-14T05:40:03.216Z,88038.00
2023-06-14T05:41:03.176Z,88042.00
2023-06-14T05:42:03.197Z,88044.00
2023-06-14T05:43:03.101Z,88042.00
2023-06-14T05:44:03.137Z,88042.00
2023-06-14T05:45:03.106Z,88046.00
2023-06-14T05:46:03.005Z,88044.00
2023-06-14T05:47:03.126Z,88042.00
2023-06-14T05:48:03.046Z,88042.00
2023-06-14T05:49:02.904Z,88042.00
2023-06-14T05:50:02.917Z,88040.00
2023-06-14T05:51:02.975Z,88042.00
2023-06-14T05:52:03.005Z,88040.00
2023-06-14T05:53:03.165Z,88042.00
2023-06-14T05:54:03.032Z,88044.00
2023-06-14T05:55:03.044Z,88044.00
2023-06-14T05:56:03.003Z,88042.00
2023-06-14T05:57:02.973Z,88044.00
2023-06-14T05:58:02.945Z,88044.00
2023-06-14T05:59:02.893Z,88046.00
2023-06-14T06:00:02.871Z,88044.00
2023-06-14T06:01:02.870Z,88044.00
2023-06-14T06:02:02.953Z,88046.00
2023-06-14T06:03:02.819Z,88044.00
2023-06-14T06:04:02.829Z,88044.00
2023-06-14T06:05:02.693Z,88046.00
2023-06-14T06:06:03.277Z,88048.00
2023-06-14T06:07:02.596Z,88050.00
2023-06-14T06:08:02.568Z,88052.00
2023-06-14T06:09:02.529Z,88054.00
2023-06-14T06:10:03.327Z,88054.00
2023-06-14T06:11:02.441Z,88054.00
2023-06-14T06:12:02.420Z,88054.00
2023-06-14T06:13:02.541Z,88052.00
2023-06-14T06:14:02.370Z,88056.00
2023-06-14T06:15:02.356Z,88054.00
2023-06-14T06:16:02.337Z,88052.00
2023-06-14T06:17:02.429Z,88048.00
2023-06-14T06:18:02.343Z,88048.00
2023-06-14T06:19:02.277Z,88052.00
2023-06-14T06:20:02.244Z,88050.00
2023-06-14T06:21:02.244Z,88050.00
2023-06-14T06:22:02.241Z,88050.00
2023-06-14T06:23:02.165Z,88048.00
2023-06-14T06:24:02.188Z,88050.00
2023-06-14T06:25:02.110Z,88052.00
2023-06-14T06:26:02.108Z,88052.00
2023-06-14T06:27:02.054Z,88052.00
2023-06-14T06:28:02.019Z,88050.00
2023-06-14T06:29:01.953Z,88050.00
2023-06-14T06:30:01.926Z,88048.00
2023-06-14T06:31:04.730Z,88048.00
2023-06-14T06:32:01.830Z,88050.00
2023-06-14T06:33:01.859Z,88050.00
2023-06-14T06:34:01.714Z,88050.00
2023-06-14T06:35:01.681Z,88052.00
2023-06-14T06:36:01.646Z,88046.00
2023-06-14T06:37:01.594Z,88050.00
2023-06-14T06:38:01.544Z,88050.00
2023-06-14T06:39:01.487Z,88050.00
2023-06-14T06:40:01.452Z,88050.00
2023-06-14T06:41:01.388Z,88054.00
2023-06-14T06:42:01.361Z,88052.00
2023-06-14T06:43:01.279Z,88056.00
2023-06-14T06:44:01.229Z,88056.00
2023-06-14T06:45:01.293Z,88052.00
2023-06-14T06:46:01.189Z,88052.00
2023-06-14T06:47:01.109Z,88056.00
2023-06-14T06:48:01.056Z,88054.00
2023-06-14T06:49:01.025Z,88054.00
2023-06-14T06:50:01.047Z,88054.00
2023-06-14T06:51:00.922Z,88050.00
2023-06-14T06:52:00.905Z,88050.00
2023-06-14T06:53:00.853Z,88048.00
2023-06-14T06:54:00.802Z,88050.00
2023-06-14T06:55:00.791Z,88048.00
2023-06-14T06:56:00.731Z,88052.00
2023-06-14T06:57:00.693Z,88050.00
2023-06-14T06:58:00.627Z,88050.00
2023-06-14T06:59:00.601Z,88052.00
2023-06-14T07:00:00.553Z,88050.00
2023-06-14T07:01:00.522Z,88046.00
2023-06-14T07:02:00.519Z,88048.00
2023-06-14T07:03:00.776Z,88050.00
2023-06-14T07:04:00.419Z,88046.00
2023-06-14T07:05:00.362Z,88044.00
2023-06-14T07:06:00.395Z,88046.00
2023-06-14T07:07:00.303Z,88046.00
2023-06-14T07:08:00.240Z,88050.00
2023-06-14T07:09:00.787Z,88050.00
2023-06-14T07:10:00.204Z,88048.00
2023-06-14T07:11:00.179Z,88050.00
2023-06-14T07:12:00.152Z,88050.00
2023-06-14T07:13:00.074Z,88050.00
2023-06-14T07:14:00.068Z,88050.00
2023-06-14T07:15:00.006Z,88050.00
2023-06-14T07:16:00.040Z,88050.00
2023-06-14T07:16:59.941Z,88046.00
2023-06-14T07:17:59.894Z,88048.00
2023-06-14T07:18:59.836Z,88048.00
2023-06-14T07:19:59.823Z,88046.00
2023-06-14T07:20:59.923Z,88044.00
2023-06-14T07:21:59.807Z,88044.00
2023-06-14T07:23:00.294Z,88044.00
2023-06-14T07:23:59.688Z,88046.00
2023-06-14T07:24:59.620Z,88042.00
2023-06-14T07:25:59.595Z,88044.00
2023-06-14T07:26:59.582Z,88044.00
2023-06-14T07:27:59.523Z,88046.00
2023-06-14T07:28:59.496Z,88046.00
2023-06-14T07:29:59.465Z,88046.00
2023-06-14T07:30:59.395Z,88050.00
2023-06-14T07:31:59.356Z,88048.00
2023-06-14T07:32:59.417Z,88050.00
2023-06-14T07:33:59.354Z,88052.00
2023-06-14T07:34:59.250Z,88050.00
2023-06-14T07:35:59.260Z,88050.00
2023-06-14T07:36:59.209Z,88052.00
2023-06-14T07:37:59.121Z,88052.00
2023-06-14T07:38:59.087Z,88048.00
2023-06-14T07:39:59.034Z,88050.00
2023-06-14T07:40:59.061Z,88048.00
2023-06-14T07:41:59.040Z,88048.00
2023-06-14T07:42:59.004Z,88048.00
2023-06-14T07:43:58.966Z,88050.00
2023-06-14T07:44:58.934Z,88048.00
2023-06-14T07:46:07.464Z,88048.00
2023-06-14T07:46:59.840Z,88048.00
2023-06-14T07:47:58.923Z,88046.00
2023-06-14T07:48:58.885Z,88048.00
2023-06-14T07:49:58.746Z,88044.00
2023-06-14T07:50:58.703Z,88042.00
2023-06-14T07:51:58.677Z,88046.00
2023-06-14T07:52:58.682Z,88044.00
2023-06-14T07:53:58.577Z,88042.00
2023-06-14T07:54:58.551Z,88040.00
2023-06-14T07:55:58.512Z,88040.00
2023-06-14T07:56:58.482Z,88040.00
2023-06-14T07:57:58.439Z,88040.00
2023-06-14T07:58:58.420Z,88038.00
2023-06-14T07:59:59.325Z,88036.00
2023-06-14T08:00:58.312Z,88034.00
2023-06-14T08:01:58.278Z,88036.00
2023-06-14T08:03:01.167Z,88036.00
2023-06-14T08:03:58.351Z,88034.00
2023-06-14T08:04:58.152Z,88032.00
2023-06-14T08:05:58.136Z,88032.00
2023-06-14T08:06:58.192Z,88030.00
2023-06-14T08:07:58.047Z,88032.00
2023-06-14T08:08:57.977Z,88032.00
2023-06-14T08:09:57.964Z,88032.00
2023-06-14T08:10:57.997Z,88032.00
2023-06-14T08:11:58.034Z,88030.00
2023-06-14T08:12:57.869Z,88030.00
2023-06-14T08:13:58.399Z,88028.00
2023-06-14T08:15:12.444Z,88028.00
2023-06-14T08:15:58.736Z,88026.00
2023-06-14T08:16:57.788Z,88030.00
2023-06-14T08:17:57.728Z,88026.00
2023-06-14T08:18:57.665Z,88022.00
2023-06-14T08:19:57.551Z,88026.00
2023-06-14T08:20:57.536Z,88022.00
2023-06-14T08:21:57.776Z,88019.00
2023-06-14T08:22:57.494Z,88017.00
2023-06-14T08:23:57.547Z,88020.00
2023-06-14T08:24:57.444Z,88015.00
2023-06-14T08:25:57.557Z,88017.00
2023-06-14T08:26:57.398Z,88015.00
2023-06-14T08:27:57.322Z,88015.00
2023-06-14T08:28:57.287Z,88019.00
2023-06-14T08:29:57.283Z,88015.00
2023-06-14T08:30:57.235Z,88017.00
2023-06-14T08:31:57.258Z,88015.00
2023-06-14T08:33:10.272Z,88019.00
2023-06-14T08:33:58.293Z,88017.00
2023-06-14T08:35:05.288Z,88017.00
2023-06-14T08:35:58.145Z,88015.00
2023-06-14T08:36:57.128Z,88017.00
2023-06-14T08:37:57.107Z,88017.00
2023-06-14T08:38:57.068Z,88015.00
2023-06-14T08:39:57.067Z,88015.00
2023-06-14T08:40:57.254Z,88015.00
2023-06-14T08:41:57.058Z,88013.00
2023-06-14T08:42:57.036Z,88015.00
2023-06-14T08:43:57.008Z,88015.00
2023-06-14T08:44:56.975Z,88011.00
2023-06-14T08:45:56.982Z,88015.00
2023-06-14T08:46:57.012Z,88013.00
2023-06-14T08:47:57.104Z,88013.00
2023-06-14T08:48:56.897Z,88015.00
2023-06-14T08:49:56.914Z,88013.00
2023-06-14T08:50:56.865Z,88009.00
2023-06-14T08:51:56.849Z,88009.00
2023-06-14T08:52:56.823Z,88007.00
2023-06-14T08:53:56.823Z,88007.00
2023-06-14T08:54:56.791Z,88011.00
2023-06-14T08:55:56.786Z,88009.00
2023-06-14T08:56:56.785Z,88007.00
2023-06-14T08:57:57.335Z,88009.00
2023-06-14T08:58:56.762Z,88013.00
2023-06-14T08:59:56.758Z,88009.00
2023-06-14T09:00:56.834Z,88007.00
2023-06-14T09:02:11.760Z,88011.00
2023-06-14T09:02:57.894Z,88011.00
2023-06-14T09:03:56.786Z,88009.00
2023-06-14T09:04:56.742Z,88011.00
2023-06-14T09:05:56.785Z,88007.00
2023-06-14T09:06:56.721Z,88005.00
2023-06-14T09:07:56.676Z,88005.00
2023-06-14T09:08:56.660Z,88005.00
2023-06-14T09:10:07.059Z,88003.00
2023-06-14T09:10:57.594Z,88001.00
2023-06-14T09:11:56.560Z,88005.00
2023-06-14T09:12:56.536Z,88003.00
2023-06-14T09:13:56.556Z,88003.00
2023-06-14T09:14:56.499Z,88003.00
2023-06-14T09:15:56.456Z,88003.00
2023-06-14T09:16:56.451Z,87999.00
2023-06-14T09:17:56.429Z,87999.00
2023-06-14T09:18:58.057Z,87995.00
2023-06-14T09:19:56.359Z,87995.00
2023-06-14T09:20:56.320Z,87997.00
2023-06-14T09:21:56.292Z,87999.00
2023-06-14T09:22:56.260Z,87997.00
2023-06-14T09:23:56.271Z,87995.00
2023-06-14T09:24:56.194Z,87993.00
2023-06-14T09:25:56.198Z,87993.00
2023-06-14T09:26:56.174Z,87991.00
2023-06-14T09:27:56.134Z,87991.00
2023-06-14T09:28:56.095Z,87991.00
2023-06-14T09:29:56.075Z,87993.00
2023-06-14T09:30:56.161Z,87991.00
2023-06-14T09:31:56.031Z,87989.00
2023-06-14T09:32:56.039Z,87993.00
2023-06-14T09:33:55.945Z,87989.00
2023-06-14T09:34:55.939Z,87993.00
2023-06-14T09:35:55.899Z,87987.00
2023-06-14T09:36:55.888Z,87987.00
2023-06-14T09:37:55.825Z,87985.00
2023-06-14T09:38:55.791Z,87991.00
2023-06-14T09:39:55.767Z,87995.00
2023-06-14T09:40:55.737Z,87989.00
2023-06-14T09:41:55.708Z,87983.00
2023-06-14T09:42:55.818Z,87981.00
2023-06-14T09:43:55.733Z,87985.00
2023-06-14T09:44:55.640Z,87993.00
2023-06-14T09:45:55.574Z,87985.00
2023-06-14T09:46:55.577Z,87987.00
2023-06-14T09:48:55.594Z,87985.00
2023-06-14T09:49:55.525Z,87993.00
2023-06-14T09:50:55.480Z,87997.00
2023-06-14T09:51:55.487Z,87993.00
2023-06-14T09:52:55.480Z,87983.00
2023-06-14T09:53:55.487Z,87987.00
2023-06-14T09:54:55.440Z,87997.00
2023-06-14T09:55:55.430Z,87991.00
2023-06-14T09:56:55.406Z,87987.00
2023-06-14T09:57:55.391Z,87991.00
2023-06-14T09:59:06.888Z,87991.00
2023-06-14T09:59:56.351Z,87991.00
2023-06-14T10:00:55.292Z,87995.00
2023-06-14T10:01:55.314Z,87995.00
2023-06-14T10:02:55.317Z,87987.00
2023-06-14T10:04:06.849Z,87993.00
2023-06-14T10:04:56.225Z,87983.00
2023-06-14T10:05:55.160Z,87991.00
2023-06-14T10:06:55.168Z,87989.00
2023-06-14T10:07:55.114Z,87987.00
2023-06-14T10:08:55.066Z,87981.00
2023-06-14T10:09:55.068Z,87987.00
2023-06-14T10:10:55.032Z,87987.00
2023-06-14T10:11:54.999Z,87987.00
2023-06-14T10:12:54.968Z,87987.00
2023-06-14T10:13:54.938Z,87979.00
2023-06-14T10:14:56.516Z,87979.00
2023-06-14T10:15:54.954Z,87979.00
2023-06-14T10:16:55.055Z,87987.00
2023-06-14T10:17:54.833Z,87985.00
2023-06-14T10:18:54.775Z,87983.00
2023-06-14T10:19:54.744Z,87981.00
2023-06-14T10:20:54.719Z,87981.00
2023-06-14T10:21:54.717Z,87979.00
2023-06-14T10:22:54.699Z,87975.00
2023-06-14T10:23:54.827Z,87971.00
2023-06-14T10:24:54.654Z,87977.00
2023-06-14T10:25:54.789Z,87979.00
2023-06-14T10:26:55.514Z,87975.00
2023-06-14T10:27:54.566Z,87971.00
2023-06-14T10:28:54.486Z,87979.00
2023-06-14T10:29:54.413Z,87979.00
2023-06-14T10:30:54.367Z,87977.00
2023-06-14T10:31:54.328Z,87977.00
2023-06-14T10:32:54.294Z,87973.00
2023-06-14T10:33:54.221Z,87971.00
2023-06-14T10:34:54.230Z,87969.00
2023-06-14T10:35:54.155Z,87973.00
2023-06-14T10:36:54.119Z,87967.00
2023-06-14T10:37:54.096Z,87959.00
2023-06-14T10:38:54.093Z,87969.00
2023-06-14T10:39:54.095Z,87969.00
2023-06-14T10:40:54.116Z,87969.00
2023-06-14T10:41:54.150Z,87969.00
2023-06-14T10:42:54.139Z,87969.00
2023-06-14T10:43:54.138Z,87971.00
2023-06-14T10:44:54.149Z,87971.00
2023-06-14T10:45:54.198Z,87969.00
2023-06-14T10:46:54.129Z,87959.00
2023-06-14T10:47:54.201Z,87969.00
2023-06-14T10:48:54.103Z,87965.00
2023-06-14T10:49:54.116Z,87965.00
2023-06-14T10:50:54.076Z,87959.00
2023-06-14T10:51:54.126Z,87957.00
2023-06-14T10:52:54.094Z,87957.00
2023-06-14T10:53:54.049Z,87959.00
2023-06-14T10:54:54.046Z,87957.00
2023-06-14T10:55:54.040Z,87957.00
2023-06-14T10:56:54.011Z,87955.00
2023-06-14T10:57:55.425Z,87953.00
2023-06-14T10:58:53.987Z,87953.00
2023-06-14T10:59:53.953Z,87953.00
2023-06-14T11:00:53.962Z,87949.00
2023-06-14T11:01:53.970Z,87951.00
2023-06-14T11:02:53.948Z,87951.00
2023-06-14T11:03:53.897Z,87949.00
2023-06-14T11:04:53.851Z,87943.00
2023-06-14T11:05:53.950Z,87941.00
2023-06-14T11:06:53.787Z,87941.00
2023-06-14T11:07:53.746Z,87943.00
2023-06-14T11:08:53.734Z,87941.00
2023-06-14T11:09:53.708Z,87935.00
2023-06-14T11:10:53.665Z,87941.00
2023-06-14T11:11:53.636Z,87939.00
2023-06-14T11:14:12.258Z,87937.00
2023-06-14T11:15:12.300Z,87937.00
2023-06-14T11:16:12.339Z,87935.00
2023-06-14T11:17:12.282Z,87935.00
2023-06-14T11:18:12.250Z,87937.00
2023-06-14T11:19:12.261Z,87935.00
2023-06-14T11:20:12.287Z,87931.00
2023-06-14T11:21:12.276Z,87929.00
2023-06-14T11:22:12.265Z,87931.00
2023-06-14T11:23:12.246Z,87927.00
2023-06-14T11:24:12.315Z,87931.00
2023-06-14T11:25:12.269Z,87929.00
2023-06-14T11:26:12.930Z,87929.00
2023-06-14T11:27:12.473Z,87927.00
2023-06-14T11:28:12.253Z,87931.00
2023-06-14T11:29:12.248Z,87927.00
2023-06-14T11:30:12.261Z,87925.00
2023-06-14T11:31:12.275Z,87929.00
2023-06-14T11:32:12.249Z,87925.00
2023-06-14T11:33:12.260Z,87925.00
2023-06-14T11:34:12.225Z,87923.00
2023-06-14T11:35:12.231Z,87919.00
2023-06-14T11:36:12.228Z,87921.00
2023-06-14T11:37:12.290Z,87919.00
2023-06-14T11:38:12.361Z,87917.00
2023-06-14T11:39:12.439Z,87919.00
2023-06-14T11:40:12.480Z,87921.00
2023-06-14T11:41:12.528Z,87919.00
2023-06-14T11:42:12.627Z,87917.00
2023-06-14T11:43:12.651Z,87913.00
2023-06-14T11:44:12.762Z,87917.00
2023-06-14T11:45:12.766Z,87911.00
2023-06-14T11:46:12.820Z,87909.00
2023-06-14T11:47:12.973Z,87911.00
2023-06-14T11:48:12.961Z,87907.00
2023-06-14T11:49:12.986Z,87909.00
2023-06-14T11:50:13.051Z,87905.00